createdAt,value
2019-05-26T00:01:14.015Z,100451.24
2019-05-26T00:03:42.744Z,100449.50
2019-05-26T00:06:11.385Z,100451.27
2019-05-26T00:08:39.935Z,100447.89
2019-05-26T00:11:08.594Z,100448.73
2019-05-26T00:13:37.293Z,100445.08
2019-05-26T00:16:05.896Z,100438.70
2019-05-26T00:18:34.419Z,100431.19
2019-05-26T00:21:04.431Z,100427.27
2019-05-26T00:23:32.827Z,100428.66
2019-05-26T00:26:01.271Z,100429.09
2019-05-26T00:28:29.785Z,100433.43
2019-05-26T00:30:58.366Z,100427.67
2019-05-26T00:33:26.977Z,100427.69
2019-05-26T00:35:55.451Z,100428.97
2019-05-26T00:38:24.031Z,100424.67
2019-05-26T00:40:52.594Z,100428.47
2019-05-26T00:43:21.367Z,100430.16
2019-05-26T00:45:49.882Z,100428.55
2019-05-26T00:48:18.305Z,100427.66
2019-05-26T00:50:46.725Z,100427.30
2019-05-26T00:53:15.173Z,100421.28
2019-05-26T00:55:43.571Z,100412.86
2019-05-26T00:58:12.064Z,100416.25
2019-05-26T01:00:43.035Z,100415.84
2019-05-26T01:03:12.304Z,100418.85
2019-05-26T01:05:41.068Z,100414.20
2019-05-26T01:08:09.734Z,100414.66
2019-05-26T01:10:38.295Z,100415.06
2019-05-26T01:13:07.245Z,100412.55
2019-05-26T01:15:35.798Z,100412.19
2019-05-26T01:18:05.048Z,100416.84
2019-05-26T01:20:33.663Z,100414.35
2019-05-26T01:23:02.081Z,100409.23
2019-05-26T01:25:30.510Z,100413.97
2019-05-26T01:27:58.949Z,100418.20
2019-05-26T01:30:38.571Z,100414.44
2019-05-26T01:33:07.648Z,100404.21
2019-05-26T01:35:39.914Z,100408.05
2019-05-26T01:38:22.596Z,100400.82
2019-05-26T01:40:43.787Z,100403.81
2019-05-26T01:43:12.347Z,100401.66
2019-05-26T01:45:40.774Z,100401.27
2019-05-26T01:48:09.458Z,100398.72
2019-05-26T01:50:38.007Z,100397.89
2019-05-26T01:53:07.283Z,100400.47
2019-05-26T01:55:36.240Z,100403.46
2019-05-26T01:58:05.096Z,100392.91
2019-05-26T02:00:33.602Z,100394.59
2019-05-26T02:03:02.004Z,100395.42
2019-05-26T02:05:30.441Z,100393.31
2019-05-26T02:07:58.941Z,100396.74
2019-05-26T02:10:27.349Z,100394.71
2019-05-26T02:12:55.781Z,100396.74
2019-05-26T02:15:25.145Z,100391.20
2019-05-26T02:17:53.631Z,100394.20
2019-05-26T02:20:22.483Z,100390.38
2019-05-26T02:22:50.896Z,100389.48
2019-05-26T02:25:20.262Z,100382.32
2019-05-26T02:27:48.703Z,100383.63
2019-05-26T02:30:18.159Z,100378.50
2019-05-26T02:32:46.590Z,100379.34
2019-05-26T02:35:15.459Z,100375.52
2019-05-26T02:37:43.929Z,100379.46
2019-05-26T02:40:15.450Z,100379.02
2019-05-26T02:42:43.853Z,100376.03
2019-05-26T02:45:16.726Z,100370.53
2019-05-26T02:47:46.891Z,100364.16
2019-05-26T02:50:16.593Z,100370.14
2019-05-26T02:52:45.007Z,100369.33
2019-05-26T02:55:13.963Z,100365.49
2019-05-26T02:57:42.399Z,100360.84
2019-05-26T03:00:13.200Z,100367.27
2019-05-26T03:02:41.808Z,100368.56
2019-05-26T03:05:11.764Z,100363.91
2019-05-26T03:07:43.187Z,100361.42
2019-05-26T03:10:14.291Z,100356.75
2019-05-26T03:12:43.658Z,100355.02
2019-05-26T03:15:13.923Z,100348.59
2019-05-26T03:17:43.482Z,100346.92
2019-05-26T03:20:14.934Z,100341.88
2019-05-26T03:22:43.417Z,100343.53
2019-05-26T03:25:12.918Z,100347.38
2019-05-26T03:27:41.378Z,100344.38
2019-05-26T03:30:12.150Z,100345.70
2019-05-26T03:32:40.691Z,100339.78
2019-05-26T03:35:10.545Z,100337.99
2019-05-26T03:37:38.986Z,100344.83
2019-05-26T03:40:11.524Z,100338.81
2019-05-26T03:42:39.930Z,100336.64
2019-05-26T03:45:09.500Z,100341.38
2019-05-26T03:47:37.930Z,100340.46
2019-05-26T03:50:09.557Z,100335.68
2019-05-26T03:52:38.004Z,100336.08
2019-05-26T03:55:07.448Z,100329.62
2019-05-26T03:57:35.924Z,100330.42
2019-05-26T04:00:07.679Z,100330.79
2019-05-26T04:02:36.157Z,100325.61
2019-05-26T04:05:07.022Z,100321.34
2019-05-26T04:07:35.473Z,100320.44
2019-05-26T04:10:08.265Z,100316.59
2019-05-26T04:12:36.743Z,100314.95
2019-05-26T04:15:06.903Z,100316.16
2019-05-26T04:17:35.315Z,100320.67
2019-05-26T04:20:04.893Z,100314.70
2019-05-26T04:22:33.315Z,100319.28
2019-05-26T04:25:02.048Z,100315.86
2019-05-26T04:27:30.449Z,100315.73
2019-05-26T04:29:58.854Z,100312.27
2019-05-26T04:32:27.287Z,100317.14
2019-05-26T04:34:55.784Z,100315.75
2019-05-26T04:37:24.190Z,100315.19
2019-05-26T04:39:52.621Z,100312.66
2019-05-26T04:42:21.035Z,100311.20
2019-05-26T04:44:49.475Z,100312.83
2019-05-26T04:47:17.919Z,100305.89
2019-05-26T04:49:46.408Z,100305.44
2019-05-26T04:52:14.861Z,100312.16
2019-05-26T04:54:43.314Z,100305.14
2019-05-26T04:57:11.706Z,100306.27
2019-05-26T04:59:40.135Z,100305.29
2019-05-26T05:02:08.567Z,100300.89
2019-05-26T05:04:36.993Z,100294.30
2019-05-26T05:07:05.603Z,100298.36
2019-05-26T05:09:34.030Z,100296.54
2019-05-26T05:12:05.611Z,100294.63
2019-05-26T05:14:34.032Z,100304.29
2019-05-26T05:17:02.530Z,100302.70
2019-05-26T05:19:30.981Z,100303.30
2019-05-26T05:21:59.485Z,100300.59
2019-05-26T05:24:28.197Z,100299.48
2019-05-26T05:26:56.615Z,100297.53
2019-05-26T05:29:25.064Z,100286.99
2019-05-26T05:31:53.639Z,100298.44
2019-05-26T05:34:22.064Z,100298.45
2019-05-26T05:36:50.494Z,100298.92
2019-05-26T05:39:18.926Z,100296.36
2019-05-26T05:41:47.340Z,100292.25
2019-05-26T05:44:15.773Z,100294.04
2019-05-26T05:46:44.207Z,100292.97
2019-05-26T05:49:12.654Z,100290.28
2019-05-26T05:51:41.086Z,100299.59
2019-05-26T05:54:09.491Z,100292.89
2019-05-26T05:56:38.000Z,100290.99
2019-05-26T05:59:06.398Z,100290.84
2019-05-26T06:01:34.912Z,100290.49
2019-05-26T06:04:03.420Z,100291.91
2019-05-26T06:06:31.867Z,100289.17
2019-05-26T06:09:00.303Z,100287.31
2019-05-26T06:11:28.744Z,100281.80
2019-05-26T06:13:57.151Z,100275.09
2019-05-26T06:16:25.687Z,100277.13
2019-05-26T06:18:54.137Z,100275.69
2019-05-26T06:21:23.082Z,100280.66
2019-05-26T06:23:51.752Z,100272.41
2019-05-26T06:26:20.457Z,100266.84
2019-05-26T06:28:52.186Z,100269.28
2019-05-26T06:31:19.074Z,100272.78
2019-05-26T06:33:47.575Z,100270.70
2019-05-26T06:36:15.993Z,100269.42
2019-05-26T06:38:44.514Z,100270.81
2019-05-26T06:41:12.993Z,100274.37
2019-05-26T06:43:41.478Z,100272.84
2019-05-26T06:46:09.915Z,100280.23
2019-05-26T06:48:38.336Z,100280.66
2019-05-26T06:51:06.843Z,100279.86
2019-05-26T06:53:37.443Z,100278.28
2019-05-26T06:56:05.450Z,100277.45
2019-05-26T06:58:34.037Z,100281.19
2019-05-26T07:01:02.859Z,100288.48
2019-05-26T07:03:31.352Z,100294.89
2019-05-26T07:05:59.859Z,100287.44
2019-05-26T07:08:28.874Z,100281.30
2019-05-26T07:10:57.315Z,100277.30
2019-05-26T07:13:25.889Z,100265.22
2019-05-26T07:15:54.299Z,100271.16
2019-05-26T07:18:22.762Z,100268.63
2019-05-26T07:20:51.265Z,100265.30
2019-05-26T07:23:19.704Z,100267.16
2019-05-26T07:25:48.192Z,100270.09
2019-05-26T07:28:17.372Z,100273.03
2019-05-26T07:30:45.829Z,100268.22
2019-05-26T07:33:14.316Z,100269.44
2019-05-26T07:35:44.086Z,100265.32
2019-05-26T07:38:12.566Z,100262.95
2019-05-26T07:40:40.989Z,100261.97
2019-05-26T07:43:09.983Z,100255.56
2019-05-26T07:45:38.756Z,100256.27
2019-05-26T07:48:07.183Z,100255.05
2019-05-26T07:50:35.908Z,100247.81
2019-05-26T07:53:04.612Z,100255.88
2019-05-26T07:55:33.020Z,100249.44
2019-05-26T07:58:01.526Z,100253.17
2019-05-26T08:00:30.110Z,100252.47
2019-05-26T08:02:58.916Z,100249.74
2019-05-26T08:05:27.341Z,100253.30
2019-05-26T08:08:11.483Z,100250.55
2019-05-26T08:10:26.012Z,100248.39
2019-05-26T08:12:54.444Z,100253.20
2019-05-26T08:15:22.939Z,100257.08
2019-05-26T08:17:51.424Z,100245.88
2019-05-26T08:20:20.390Z,100247.20
2019-05-26T08:22:48.866Z,100253.56
2019-05-26T08:25:17.675Z,100251.03
2019-05-26T08:27:46.100Z,100243.37
2019-05-26T08:30:14.988Z,100249.12
2019-05-26T08:32:43.395Z,100245.94
2019-05-26T08:35:11.961Z,100241.13
2019-05-26T08:37:40.409Z,100242.61
2019-05-26T08:40:20.777Z,100246.47
2019-05-26T08:42:51.236Z,100254.72
2019-05-26T08:45:23.027Z,100242.48
2019-05-26T08:47:52.794Z,100238.81
2019-05-26T08:50:21.921Z,100239.02
2019-05-26T08:52:50.590Z,100240.85
2019-05-26T08:55:19.094Z,100242.10
2019-05-26T08:57:47.522Z,100235.66
2019-05-26T09:00:16.987Z,100226.59
2019-05-26T09:02:45.439Z,100221.44
2019-05-26T09:05:15.074Z,100220.39
2019-05-26T09:07:43.515Z,100223.15
2019-05-26T09:10:12.982Z,100219.84
2019-05-26T09:12:41.546Z,100220.11
2019-05-26T09:15:12.243Z,100211.42
2019-05-26T09:17:40.786Z,100218.90
2019-05-26T09:20:11.764Z,100218.90
2019-05-26T09:22:40.514Z,100219.13
2019-05-26T09:25:09.344Z,100224.40
2019-05-26T09:27:38.033Z,100224.40
2019-05-26T09:30:07.917Z,100217.63
2019-05-26T09:32:36.916Z,100211.61
2019-05-26T09:35:09.211Z,100221.19
2019-05-26T09:37:37.899Z,100220.55
2019-05-26T09:40:08.320Z,100207.08
2019-05-26T09:42:36.787Z,100199.92
2019-05-26T09:45:07.558Z,100199.92
2019-05-26T09:47:35.972Z,100199.46
2019-05-26T09:50:07.365Z,100193.98
2019-05-26T09:52:36.303Z,100191.47
2019-05-26T09:55:07.115Z,100191.02
2019-05-26T09:57:35.547Z,100188.68
2019-05-26T10:00:07.289Z,100186.84
2019-05-26T10:02:35.779Z,100186.27
2019-05-26T10:05:08.659Z,100192.56
2019-05-26T10:07:37.065Z,100199.97
2019-05-26T10:10:10.986Z,100192.19
2019-05-26T10:12:39.345Z,100199.44
2019-05-26T10:15:08.594Z,100184.93
2019-05-26T10:17:37.019Z,100185.48
2019-05-26T10:20:08.172Z,100186.12
2019-05-26T10:22:36.669Z,100189.97
2019-05-26T10:25:09.247Z,100183.19
2019-05-26T10:27:37.672Z,100183.27
2019-05-26T10:30:12.068Z,100175.70
2019-05-26T10:32:41.611Z,100175.75
2019-05-26T10:35:10.153Z,100181.42
2019-05-26T10:37:38.579Z,100173.88
2019-05-26T10:40:07.728Z,100173.84
2019-05-26T10:42:36.153Z,100171.23
2019-05-26T10:45:09.525Z,100167.27
2019-05-26T10:47:38.000Z,100168.91
2019-05-26T10:50:10.500Z,100169.39
2019-05-26T10:52:38.925Z,100175.82
2019-05-26T10:55:08.164Z,100170.62
2019-05-26T10:57:36.731Z,100175.73
2019-05-26T11:00:09.840Z,100166.92
2019-05-26T11:02:38.310Z,100163.16
2019-05-26T11:05:08.173Z,100168.27
2019-05-26T11:07:36.680Z,100156.93
2019-05-26T11:10:07.091Z,100164.48
2019-05-26T11:12:35.593Z,100163.08
2019-05-26T11:15:09.172Z,100152.50
2019-05-26T11:17:37.676Z,100148.97
2019-05-26T11:20:09.154Z,100146.85
2019-05-26T11:22:37.593Z,100146.85
2019-05-26T11:25:07.137Z,100156.31
2019-05-26T11:27:35.559Z,100153.91
2019-05-26T11:30:06.514Z,100155.38
2019-05-26T11:32:34.902Z,100148.23
2019-05-26T11:35:03.398Z,100154.52
2019-05-26T11:37:31.905Z,100148.93
2019-05-26T11:40:00.338Z,100139.12
2019-05-26T11:42:28.809Z,100146.93
2019-05-26T11:44:57.269Z,100147.77
2019-05-26T11:47:25.682Z,100140.91
2019-05-26T11:49:54.104Z,100134.60
2019-05-26T11:52:22.672Z,100132.91
2019-05-26T11:54:51.089Z,100130.33
2019-05-26T11:57:19.537Z,100120.92
2019-05-26T11:59:47.974Z,100121.07
2019-05-26T12:02:16.365Z,100126.45
2019-05-26T12:04:44.780Z,100119.13
2019-05-26T12:07:13.216Z,100122.33
2019-05-26T12:09:41.633Z,100118.58
2019-05-26T12:12:10.074Z,100107.59
2019-05-26T12:14:38.503Z,100113.37
2019-05-26T12:17:06.926Z,100106.95
2019-05-26T12:19:35.349Z,100106.62
2019-05-26T12:22:03.821Z,100103.17
2019-05-26T12:24:32.244Z,100101.95
2019-05-26T12:27:00.678Z,100098.16
2019-05-26T12:29:29.096Z,100099.48
2019-05-26T12:31:57.532Z,100109.17
2019-05-26T12:34:25.994Z,100103.71
2019-05-26T12:36:54.405Z,100104.25
2019-05-26T12:39:22.827Z,100096.89
2019-05-26T12:41:51.263Z,100097.23
2019-05-26T12:44:19.676Z,100097.55
2019-05-26T12:46:48.106Z,100096.78
2019-05-26T12:49:16.518Z,100094.96
2019-05-26T12:51:44.948Z,100090.66
2019-05-26T12:54:13.360Z,100096.59
2019-05-26T12:56:41.767Z,100093.84
2019-05-26T12:59:10.316Z,100093.73
2019-05-26T13:01:38.715Z,100082.35
2019-05-26T13:04:07.607Z,100075.38
2019-05-26T13:06:36.036Z,100074.78
2019-05-26T13:09:10.511Z,100075.00
2019-05-26T13:11:39.035Z,100074.05
2019-05-26T13:14:07.595Z,100071.67
2019-05-26T13:16:36.146Z,100075.92
2019-05-26T13:19:05.260Z,100075.35
2019-05-26T13:21:33.699Z,100075.05
2019-05-26T13:24:02.185Z,100080.25
2019-05-26T13:26:30.601Z,100073.25
2019-05-26T13:28:59.004Z,100071.31
2019-05-26T13:31:27.439Z,100074.46
2019-05-26T13:33:55.860Z,100064.30
2019-05-26T13:36:24.267Z,100068.88
2019-05-26T13:38:52.725Z,100062.02
2019-05-26T13:41:21.132Z,100066.52
2019-05-26T13:43:49.550Z,100061.25
2019-05-26T13:46:17.987Z,100062.03
2019-05-26T13:48:46.431Z,100056.27
2019-05-26T13:51:14.857Z,100055.88
2019-05-26T13:53:43.283Z,100056.92
2019-05-26T13:56:11.705Z,100055.39
2019-05-26T13:58:40.151Z,100054.58
2019-05-26T14:01:08.545Z,100051.47
2019-05-26T14:03:37.045Z,100060.02
2019-05-26T14:06:05.605Z,100044.14
2019-05-26T14:08:34.045Z,100058.08
2019-05-26T14:11:02.501Z,100048.68
2019-05-26T14:13:30.922Z,100047.57
2019-05-26T14:16:01.706Z,100041.64
2019-05-26T14:18:31.974Z,100040.98
2019-05-26T14:21:00.394Z,100036.91
2019-05-26T14:23:28.800Z,100031.88
2019-05-26T14:25:57.228Z,100035.86
2019-05-26T14:28:25.664Z,100041.45
2019-05-26T14:30:54.078Z,100030.30
2019-05-26T14:33:22.508Z,100029.48
2019-05-26T14:35:50.931Z,100020.34
2019-05-26T14:38:19.419Z,100022.81
2019-05-26T14:40:47.847Z,100018.22
2019-05-26T14:43:16.257Z,100010.84
2019-05-26T14:45:52.818Z,100006.80
2019-05-26T14:48:14.889Z,100006.86
2019-05-26T14:50:45.057Z,100004.75
2019-05-26T14:53:13.540Z,100002.38
2019-05-26T14:55:42.022Z,99993.55
2019-05-26T14:58:16.130Z,99986.96
2019-05-26T15:00:40.619Z,99979.29
2019-05-26T15:03:09.081Z,99980.89
2019-05-26T15:05:37.505Z,99977.30
2019-05-26T15:08:06.068Z,99971.41
2019-05-26T15:10:34.507Z,99967.65
2019-05-26T15:13:02.993Z,99975.95
2019-05-26T15:15:34.905Z,99970.31
2019-05-26T15:18:01.643Z,99965.66
2019-05-26T15:20:30.085Z,99962.58
2019-05-26T15:22:58.492Z,99965.48
2019-05-26T15:25:26.953Z,99961.42
2019-05-26T15:27:56.098Z,99956.25
2019-05-26T15:30:24.634Z,99955.48
2019-05-26T15:32:53.057Z,99954.97
2019-05-26T15:35:21.474Z,99957.43
2019-05-26T15:37:49.981Z,99955.26
2019-05-26T15:40:18.735Z,99958.05
2019-05-26T15:42:47.245Z,99954.14
2019-05-26T15:45:16.198Z,99955.42
2019-05-26T15:47:44.622Z,99955.22
2019-05-26T15:50:13.909Z,99950.52
2019-05-26T15:52:43.402Z,99947.51
2019-05-26T15:55:12.464Z,99947.64
2019-05-26T15:57:40.908Z,99943.31
2019-05-26T16:00:09.535Z,99942.63
2019-05-26T16:02:38.029Z,99944.62
2019-05-26T16:05:07.295Z,99934.63
2019-05-26T16:07:35.779Z,99935.50
2019-05-26T16:10:09.909Z,99934.59
2019-05-26T16:12:38.430Z,99931.13
2019-05-26T16:15:09.950Z,99928.76
2019-05-26T16:17:39.099Z,99925.95
2019-05-26T16:20:09.507Z,99920.45
2019-05-26T16:22:37.970Z,99919.05
2019-05-26T16:25:07.507Z,99910.94
2019-05-26T16:27:36.266Z,99909.59
2019-05-26T16:30:09.806Z,99900.10
2019-05-26T16:32:38.266Z,99907.14
2019-05-26T16:35:07.619Z,99902.11
2019-05-26T16:37:36.088Z,99899.22
2019-05-26T16:40:06.676Z,99903.11
2019-05-26T16:42:35.174Z,99902.13
2019-05-26T16:45:04.611Z,99901.87
2019-05-26T16:47:33.114Z,99902.48
2019-05-26T16:50:01.611Z,99901.76
2019-05-26T16:52:30.029Z,99903.19
2019-05-26T16:54:58.441Z,99899.63
2019-05-26T16:57:26.844Z,99886.41
2019-05-26T16:59:55.262Z,99886.37
2019-05-26T17:02:23.704Z,99875.56
2019-05-26T17:04:52.129Z,99880.38
2019-05-26T17:07:20.582Z,99879.81
2019-05-26T17:09:48.982Z,99875.76
2019-05-26T17:12:17.408Z,99876.55
2019-05-26T17:14:45.844Z,99869.16
2019-05-26T17:17:15.398Z,99876.48
2019-05-26T17:19:43.956Z,99869.83
2019-05-26T17:22:12.469Z,99863.08
2019-05-26T17:24:40.872Z,99865.83
2019-05-26T17:27:09.330Z,99863.23
2019-05-26T17:29:37.728Z,99858.34
2019-05-26T17:32:06.218Z,99856.67
2019-05-26T17:34:34.800Z,99859.72
2019-05-26T17:37:03.184Z,99863.71
2019-05-26T17:39:31.620Z,99864.76
2019-05-26T17:42:00.047Z,99862.03
2019-05-26T17:44:28.459Z,99858.64
2019-05-26T17:46:56.964Z,99861.39
2019-05-26T17:49:25.375Z,99862.06
2019-05-26T17:51:53.773Z,99862.16
2019-05-26T17:54:22.211Z,99860.12
2019-05-26T17:56:50.634Z,99854.01
2019-05-26T17:59:19.095Z,99846.30
2019-05-26T18:01:47.517Z,99857.27
2019-05-26T18:04:16.733Z,99843.20
2019-05-26T18:06:45.099Z,99842.25
2019-05-26T18:09:13.515Z,99839.17
2019-05-26T18:11:42.093Z,99837.36
2019-05-26T18:14:10.529Z,99837.05
2019-05-26T18:16:38.954Z,99837.77
2019-05-26T18:19:07.520Z,99834.50
2019-05-26T18:21:35.959Z,99832.09
2019-05-26T18:24:05.011Z,99841.97
2019-05-26T18:26:33.436Z,99840.16
2019-05-26T18:29:01.935Z,99840.16
2019-05-26T18:31:30.343Z,99845.54
2019-05-26T18:33:58.760Z,99838.88
2019-05-26T18:36:27.197Z,99840.58
2019-05-26T18:38:57.128Z,99837.47
2019-05-26T18:41:25.627Z,99829.81
2019-05-26T18:43:54.091Z,99835.57
2019-05-26T18:46:22.526Z,99833.63
2019-05-26T18:48:50.939Z,99833.63
2019-05-26T18:51:19.434Z,99834.41
2019-05-26T18:53:47.916Z,99834.41
2019-05-26T18:56:16.337Z,99838.95
2019-05-26T18:58:45.840Z,99834.98
2019-05-26T19:01:14.682Z,99832.34
2019-05-26T19:03:43.591Z,99828.06
2019-05-26T19:06:12.035Z,99831.69
2019-05-26T19:08:42.223Z,99833.08
2019-05-26T19:11:10.757Z,99827.83
2019-05-26T19:13:39.271Z,99827.84
2019-05-26T19:16:07.674Z,99825.15
2019-05-26T19:18:36.103Z,99823.94
2019-05-26T19:21:05.750Z,99817.84
2019-05-26T19:23:34.158Z,99820.70
2019-05-26T19:26:02.603Z,99820.78
2019-05-26T19:28:30.996Z,99814.12
2019-05-26T19:30:59.438Z,99817.58
2019-05-26T19:33:27.879Z,99817.84
2019-05-26T19:35:56.300Z,99820.99
2019-05-26T19:38:24.735Z,99811.56
2019-05-26T19:40:53.294Z,99816.22
2019-05-26T19:43:21.705Z,99809.14
2019-05-26T19:45:50.199Z,99810.55
2019-05-26T19:48:32.989Z,99811.94
2019-05-26T19:50:48.754Z,99809.08
2019-05-26T19:53:17.215Z,99807.95
2019-05-26T19:55:45.723Z,99805.84
2019-05-26T19:58:14.226Z,99808.61
2019-05-26T20:00:43.484Z,99803.80
2019-05-26T20:03:11.907Z,99806.58
2019-05-26T20:05:40.316Z,99806.58
2019-05-26T20:08:08.846Z,99801.30
2019-05-26T20:10:37.317Z,99807.61
2019-05-26T20:13:05.836Z,99804.92
2019-05-26T20:15:34.321Z,99800.38
2019-05-26T20:18:02.956Z,99803.06
2019-05-26T20:20:31.441Z,99796.02
2019-05-26T20:22:59.849Z,99790.09
2019-05-26T20:25:28.847Z,99794.45
2019-05-26T20:27:57.262Z,99793.98
2019-05-26T20:30:32.483Z,99794.10
2019-05-26T20:33:01.019Z,99788.91
2019-05-26T20:35:29.493Z,99781.78
2019-05-26T20:37:57.940Z,99786.50
2019-05-26T20:40:26.459Z,99776.59
2019-05-26T20:42:54.869Z,99776.95
2019-05-26T20:45:23.277Z,99780.31
2019-05-26T20:47:52.575Z,99779.09
2019-05-26T20:50:29.138Z,99779.77
2019-05-26T20:52:51.381Z,99778.92
2019-05-26T20:55:19.915Z,99772.44
2019-05-26T20:57:48.339Z,99777.00
2019-05-26T21:00:18.714Z,99767.92
2019-05-26T21:02:47.131Z,99770.13
2019-05-26T21:05:15.723Z,99773.47
2019-05-26T21:07:44.112Z,99770.05
2019-05-26T21:10:13.553Z,99765.50
2019-05-26T21:12:41.976Z,99765.71
2019-05-26T21:15:10.878Z,99760.52
2019-05-26T21:17:39.307Z,99759.11
2019-05-26T21:20:08.623Z,99751.06
2019-05-26T21:22:37.098Z,99752.18
2019-05-26T21:25:07.553Z,99756.98
2019-05-26T21:27:36.034Z,99762.11
2019-05-26T21:30:10.086Z,99759.58
2019-05-26T21:32:38.708Z,99754.39
2019-05-26T21:35:16.176Z,99746.61
2019-05-26T21:37:54.976Z,99752.92
2019-05-26T21:40:30.116Z,99754.39
2019-05-26T21:42:58.615Z,99752.18
2019-05-26T21:45:27.057Z,99749.20
2019-05-26T21:47:55.506Z,99748.67
2019-05-26T21:50:24.026Z,99747.73
2019-05-26T21:52:52.568Z,99750.23
2019-05-26T21:55:21.014Z,99751.81
2019-05-26T21:57:49.513Z,99746.34
2019-05-26T22:00:23.448Z,99741.15
2019-05-26T22:02:51.942Z,99734.41
2019-05-26T22:05:20.475Z,99742.00
2019-05-26T22:07:59.729Z,99739.11
2019-05-26T22:10:33.684Z,99740.53
2019-05-26T22:13:03.028Z,99731.07
2019-05-26T22:15:31.425Z,99736.45
2019-05-26T22:17:59.902Z,99733.58
2019-05-26T22:20:28.349Z,99724.03
2019-05-26T22:22:56.859Z,99729.03
2019-05-26T22:25:25.280Z,99723.85
2019-05-26T22:27:53.737Z,99721.82
2019-05-26T22:30:22.318Z,99721.82
2019-05-26T22:32:50.732Z,99717.11
2019-05-26T22:35:19.241Z,99715.55
2019-05-26T22:37:47.668Z,99711.27
2019-05-26T22:40:17.624Z,99707.77
2019-05-26T22:42:46.089Z,99694.42
2019-05-26T22:45:14.840Z,99699.42
2019-05-26T22:47:43.276Z,99695.54
2019-05-26T22:50:11.824Z,99691.66
2019-05-26T22:52:40.236Z,99694.45
2019-05-26T22:55:09.101Z,99696.69
2019-05-26T22:57:37.500Z,99694.92
2019-05-26T23:00:08.527Z,99694.45
2019-05-26T23:02:40.621Z,99701.48
2019-05-26T23:05:10.440Z,99697.51
2019-05-26T23:07:40.732Z,99686.22
2019-05-26T23:10:09.698Z,99683.98
2019-05-26T23:12:39.797Z,99682.80
2019-05-26T23:15:09.361Z,99682.80
2019-05-26T23:17:38.330Z,99670.70
2019-05-26T23:20:07.994Z,99669.02
2019-05-26T23:22:36.437Z,99665.13
2019-05-26T23:25:06.619Z,99662.62
2019-05-26T23:27:35.042Z,99663.02
2019-05-26T23:30:08.850Z,99652.65
2019-05-26T23:32:37.256Z,99647.20
2019-05-26T23:35:08.624Z,99650.70
2019-05-26T23:37:37.515Z,99649.48
2019-05-26T23:40:09.677Z,99644.16
2019-05-26T23:42:38.092Z,99642.48
2019-05-26T23:45:08.354Z,99638.41
2019-05-26T23:47:36.828Z,99643.52
2019-05-26T23:50:06.675Z,99646.92
2019-05-26T23:52:35.110Z,99636.95
2019-05-26T23:55:05.276Z,99641.00
2019-05-26T23:57:33.673Z,99643.99
